Time;durP1;ratioP1;P1;durP2;ratioP2;P2;SDS_P1;SDS_P2;PMS_P1;PMS_P2;Temp;Humidity;BMP_temperature;BMP_pressure;BME280_temperature;BME280_humidity;BME280_pressure;Samples;Min_cycle;Max_cycle;Signal;HPM_P1;HPM_P2
2024/01/01 00:00:54;;;;;;;;;;;2.10;99.90;;;;;;5016743;28;19925;-75
2024/01/01 00:03:21;;;;;;;;;;;2.10;99.90;;;;;;5014789;28;19929;-74
2024/01/01 00:05:48;;;;;;;;;;;2.10;99.90;;;;;;5014529;28;20381;-73
2024/01/01 00:08:15;;;;;;;;;;;2.10;99.90;;;;;;5015048;28;19926;-74
2024/01/01 00:10:47;;;;;;;;;;;2.10;99.90;;;;;;5015128;28;19929;-74
2024/01/01 00:13:13;;;;;;;;;;;2.10;99.90;;;;;;5015528;28;20033;-75
2024/01/01 00:15:40;;;;;;;;;;;2.10;99.90;;;;;;5014256;28;19933;-73
2024/01/01 00:18:14;;;;;;;;;;;2.10;99.90;;;;;;5014754;28;19932;-73
2024/01/01 00:20:41;;;;;;;;;;;2.10;99.90;;;;;;5014928;28;19926;-74
2024/01/01 00:23:07;;;;;;;;;;;2.10;99.90;;;;;;5015340;28;19926;-73
2024/01/01 00:25:36;;;;;;;;;;;2.10;99.90;;;;;;5015119;28;19926;-73
2024/01/01 00:28:04;;;;;;;;;;;2.20;99.90;;;;;;5014348;28;19925;-74
2024/01/01 00:30:31;;;;;;;;;;;2.10;99.90;;;;;;5013339;28;20294;-72
2024/01/01 00:32:57;;;;;;;;;;;2.20;99.90;;;;;;5014131;28;20398;-73
2024/01/01 00:35:24;;;;;;;;;;;2.20;99.90;;;;;;5014237;28;19925;-73
2024/01/01 00:37:54;;;;;;;;;;;2.20;99.90;;;;;;5014293;28;20334;-74
2024/01/01 00:40:21;;;;;;;;;;;3.70;99.90;;;;;;5014260;28;19933;-74
2024/01/01 00:42:49;;;;;;;;;;;2.20;99.90;;;;;;5014200;28;19926;-73
2024/01/01 00:45:15;;;;;;;;;;;2.20;99.90;;;;;;5014640;28;19925;-74
2024/01/01 00:47:42;;;;;;;;;;;2.20;99.90;;;;;;5014104;28;19937;-73
2024/01/01 00:50:09;;;;;;;;;;;2.20;99.90;;;;;;5014517;28;19929;-74
2024/01/01 00:52:35;;;;;;;;;;;2.20;99.90;;;;;;5014727;28;19925;-74
2024/01/01 00:55:05;;;;;;;;;;;2.20;99.90;;;;;;5014178;28;19929;-74
2024/01/01 00:57:30;;;;;;;;;;;2.20;99.90;;;;;;5014165;28;19933;-74
2024/01/01 00:59:58;;;;;;;;;;;2.20;99.90;;;;;;5013866;28;19922;-74
2024/01/01 01:02:25;;;;;;;;;;;2.20;99.90;;;;;;5014042;28;19925;-74
2024/01/01 01:04:52;;;;;;;;;;;2.20;99.90;;;;;;5013987;28;19929;-75
2024/01/01 01:07:19;;;;;;;;;;;2.20;99.90;;;;;;5014043;28;19925;-75
2024/01/01 01:09:46;;;;;;;;;;;2.30;99.90;;;;;;5014003;28;19926;-75
2024/01/01 01:12:12;;;;;;;;;;;2.30;99.90;;;;;;5013955;28;19926;-75
2024/01/01 01:14:39;;;;;;;;;;;2.30;99.90;;;;;;5013543;28;19933;-74
2024/01/01 01:17:08;;;;;;;;;;;2.30;99.90;;;;;;5013628;28;20287;-73
2024/01/01 01:19:34;;;;;;;;;;;2.30;99.90;;;;;;5013746;28;20303;-74
2024/01/01 01:22:01;;;;;;;;;;;2.30;99.90;;;;;;5014178;28;19925;-75
2024/01/01 01:24:27;;;;;;;;;;;2.30;99.90;;;;;;5013843;28;19925;-74
2024/01/01 01:26:54;;;;;;;;;;;2.30;99.90;;;;;;5014027;28;19926;-73
2024/01/01 01:29:24;;;;;;;;;;;2.30;99.90;;;;;;5013777;28;19932;-75
2024/01/01 01:31:50;;;;;;;;;;;2.30;99.90;;;;;;5014132;28;19964;-74
2024/01/01 01:34:20;;;;;;;;;;;2.30;99.90;;;;;;5014007;28;19933;-74
2024/01/01 01:36:46;;;;;;;;;;;2.20;99.90;;;;;;5013654;28;19940;-74
2024/01/01 01:39:15;;;;;;;;;;;2.20;99.90;;;;;;5013802;28;19933;-73
2024/01/01 01:41:42;;;;;;;;;;;2.20;99.90;;;;;;5014290;28;19930;-73
2024/01/01 01:44:08;;;;;;;;;;;2.20;99.90;;;;;;5017232;28;19932;-73
2024/01/01 01:46:35;;;;;;;;;;;2.20;99.90;;;;;;5017238;28;19926;-73
2024/01/01 01:49:02;;;;;;;;;;;2.20;99.90;;;;;;5016856;28;20074;-77
2024/01/01 01:51:30;;;;;;;;;;;2.10;99.90;;;;;;5017234;28;20026;-75
2024/01/01 01:53:57;;;;;;;;;;;2.10;99.90;;;;;;5017117;28;19925;-75
2024/01/01 01:56:24;;;;;;;;;;;2.00;99.90;;;;;;5018445;28;19948;-74
2024/01/01 01:58:51;;;;;;;;;;;1.90;99.90;;;;;;5017040;28;19925;-73
2024/01/01 02:01:17;;;;;;;;;;;1.90;99.90;;;;;;5016973;28;19925;-73
2024/01/01 02:03:44;;;;;;;;;;;1.90;99.90;;;;;;5016807;28;19926;-74
2024/01/01 02:06:11;;;;;;;;;;;1.90;99.90;;;;;;5016999;28;19925;-74
2024/01/01 02:08:39;;;;;;;;;;;2.00;99.90;;;;;;5016563;28;20393;-74
2024/01/01 02:11:06;;;;;;;;;;;2.00;99.90;;;;;;5017618;28;19925;-75
2024/01/01 02:13:33;;;;;;;;;;;2.00;99.90;;;;;;5016644;28;19930;-73
2024/01/01 02:16:00;;;;;;;;;;;2.00;99.90;;;;;;5016487;28;19979;-74
2024/01/01 02:18:26;;;;;;;;;;;2.10;99.90;;;;;;5016323;28;19968;-73
2024/01/01 02:20:53;;;;;;;;;;;2.10;99.90;;;;;;5016534;28;20012;-74
2024/01/01 02:23:21;;;;;;;;;;;2.20;99.90;;;;;;5016649;28;19925;-73
2024/01/01 02:25:47;;;;;;;;;;;2.20;99.90;;;;;;5017262;28;19933;-74
2024/01/01 02:28:14;;;;;;;;;;;2.20;99.90;;;;;;5016658;28;19933;-72
2024/01/01 02:30:41;;;;;;;;;;;2.20;99.90;;;;;;5016479;28;19983;-72
2024/01/01 02:33:08;;;;;;;;;;;2.30;99.90;;;;;;5016378;28;20001;-72
2024/01/01 02:35:35;;;;;;;;;;;2.30;99.90;;;;;;5016165;28;20055;-73
2024/01/01 02:38:04;;;;;;;;;;;2.30;99.90;;;;;;5015939;28;20296;-73
2024/01/01 02:40:32;;;;;;;;;;;2.40;99.90;;;;;;5016378;28;19925;-73
2024/01/01 02:43:00;;;;;;;;;;;2.40;99.90;;;;;;5016350;28;19926;-74
2024/01/01 02:45:27;;;;;;;;;;;2.50;99.90;;;;;;5016239;28;19925;-74
2024/01/01 02:47:54;;;;;;;;;;;2.50;99.90;;;;;;5016211;28;19930;-73
2024/01/01 02:50:21;;;;;;;;;;;2.50;99.90;;;;;;5024966;28;19925;-72
2024/01/01 02:52:47;;;;;;;;;;;2.50;99.90;;;;;;5028529;28;19925;-72
2024/01/01 02:55:14;;;;;;;;;;;2.50;99.90;;;;;;5024346;28;19930;-73
2024/01/01 02:57:42;;;;;;;;;;;2.50;99.90;;;;;;5015920;28;19932;-73
2024/01/01 03:00:09;;;;;;;;;;;2.50;99.90;;;;;;5015561;28;20450;-73
2024/01/01 03:02:38;;;;;;;;;;;2.50;99.90;;;;;;5015765;28;19987;-74
2024/01/01 03:05:05;;;;;;;;;;;2.50;99.90;;;;;;5015649;28;19925;-73
2024/01/01 03:07:32;;;;;;;;;;;2.50;99.90;;;;;;5015774;28;19933;-73
2024/01/01 03:09:58;;;;;;;;;;;2.50;99.90;;;;;;5015647;28;19930;-73
2024/01/01 03:12:25;;;;;;;;;;;2.50;99.90;;;;;;5015202;28;20387;-73
2024/01/01 03:14:53;;;;;;;;;;;2.40;99.90;;;;;;5015300;28;20406;-73
2024/01/01 03:17:19;;;;;;;;;;;2.40;99.90;;;;;;5016448;28;19933;-74
2024/01/01 03:19:46;;;;;;;;;;;2.40;99.90;;;;;;5015439;28;19933;-74
2024/01/01 03:22:12;;;;;;;;;;;2.30;99.90;;;;;;5015413;28;19926;-74
2024/01/01 03:24:39;;;;;;;;;;;2.20;99.90;;;;;;5015452;28;19932;-74
2024/01/01 03:27:05;;;;;;;;;;;2.20;99.90;;;;;;5015345;28;19933;-75
2024/01/01 03:29:32;;;;;;;;;;;2.10;99.90;;;;;;5015263;28;19932;-72
2024/01/01 03:32:00;;;;;;;;;;;2.00;99.90;;;;;;5015292;28;19969;-74
2024/01/01 03:34:26;;;;;;;;;;;1.90;99.90;;;;;;5015301;28;19933;-74
2024/01/01 03:36:53;;;;;;;;;;;1.90;99.90;;;;;;5014934;28;19936;-74
2024/01/01 03:39:19;;;;;;;;;;;1.90;99.90;;;;;;5015242;28;19932;-74
2024/01/01 03:41:46;;;;;;;;;;;1.80;99.90;;;;;;5014877;28;20362;-74
2024/01/01 03:44:13;;;;;;;;;;;1.80;99.90;;;;;;5015171;28;20294;-74
2024/01/01 03:46:40;;;;;;;;;;;1.80;99.90;;;;;;5014690;28;20379;-74
2024/01/01 03:49:08;;;;;;;;;;;1.70;99.90;;;;;;5014861;28;19976;-73
2024/01/01 03:51:34;;;;;;;;;;;1.80;99.90;;;;;;5014954;28;19930;-73
2024/01/01 03:54:01;;;;;;;;;;;1.80;99.90;;;;;;5014863;28;19925;-73
2024/01/01 03:56:27;;;;;;;;;;;1.70;99.90;;;;;;5014877;28;19932;-73
2024/01/01 03:58:54;;;;;;;;;;;1.80;99.90;;;;;;5014925;28;19933;-73
2024/01/01 04:01:21;;;;;;;;;;;1.80;99.90;;;;;;5014976;28;19971;-74
2024/01/01 04:03:47;;;;;;;;;;;1.80;99.90;;;;;;5014798;28;19932;-74
2024/01/01 04:06:15;;;;;;;;;;;1.80;99.90;;;;;;5014343;28;19932;-74
2024/01/01 04:08:42;;;;;;;;;;;1.70;99.90;;;;;;5014769;28;19925;-74
2024/01/01 04:11:08;;;;;;;;;;;1.80;99.90;;;;;;5014583;28;19926;-73
2024/01/01 04:13:35;;;;;;;;;;;1.70;99.90;;;;;;5014455;28;19929;-73
2024/01/01 04:16:02;;;;;;;;;;;1.70;99.90;;;;;;5019959;23;19936;-73
2024/01/01 04:18:28;;;;;;;;;;;1.70;99.90;;;;;;4995124;28;19933;-70
2024/01/01 04:20:55;;;;;;;;;;;1.70;99.90;;;;;;4995551;28;19925;-71
2024/01/01 04:23:23;;;;;;;;;;;1.70;99.90;;;;;;4994923;28;19930;-71
2024/01/01 04:25:49;;;;;;;;;;;1.70;99.90;;;;;;5011391;28;19936;-71
2024/01/01 04:28:16;;;;;;;;;;;1.70;99.90;;;;;;5014515;28;19926;-72
2024/01/01 04:30:42;;;;;;;;;;;1.60;99.90;;;;;;5014597;28;19934;-72
2024/01/01 04:33:09;;;;;;;;;;;1.60;99.90;;;;;;5015261;28;19926;-72
2024/01/01 04:35:35;;;;;;;;;;;1.60;99.90;;;;;;5014408;28;19932;-72
2024/01/01 04:38:02;;;;;;;;;;;1.50;99.90;;;;;;5014281;28;19932;-72
2024/01/01 04:40:30;;;;;;;;;;;1.50;99.90;;;;;;5014453;28;19926;-72
2024/01/01 04:42:59;;;;;;;;;;;1.50;99.90;;;;;;5014077;28;19925;-71
2024/01/01 04:45:26;;;;;;;;;;;1.50;99.90;;;;;;5014254;28;19948;-71
2024/01/01 04:47:53;;;;;;;;;;;1.50;99.90;;;;;;5014174;28;19926;-71
2024/01/01 04:50:19;;;;;;;;;;;1.50;99.90;;;;;;5014225;28;19933;-71
2024/01/01 04:52:46;;;;;;;;;;;1.50;99.90;;;;;;5014358;28;19925;-72
2024/01/01 04:55:12;;;;;;;;;;;1.60;99.90;;;;;;5014145;28;19932;-72
2024/01/01 04:57:40;;;;;;;;;;;1.60;99.90;;;;;;5013989;28;20394;-71
2024/01/01 05:00:07;;;;;;;;;;;1.70;99.90;;;;;;5014264;28;19933;-70
2024/01/01 05:02:34;;;;;;;;;;;1.80;99.90;;;;;;5014130;28;20231;-70
2024/01/01 05:05:00;;;;;;;;;;;1.80;99.90;;;;;;5014074;28;19925;-70
2024/01/01 05:07:27;;;;;;;;;;;1.90;99.90;;;;;;5013770;28;20424;-70
2024/01/01 05:09:53;;;;;;;;;;;1.90;99.90;;;;;;5013918;28;19926;-70
2024/01/01 05:12:20;;;;;;;;;;;2.00;99.90;;;;;;5013993;28;19926;-70
2024/01/01 05:14:48;;;;;;;;;;;2.00;99.90;;;;;;5013695;28;20008;-70
2024/01/01 05:17:14;;;;;;;;;;;2.00;99.90;;;;;;5015188;28;19949;-70
2024/01/01 05:19:41;;;;;;;;;;;2.10;99.90;;;;;;5017836;28;19925;-70
2024/01/01 05:22:07;;;;;;;;;;;2.10;99.90;;;;;;5017834;28;19926;-70
2024/01/01 05:24:35;;;;;;;;;;;2.00;99.90;;;;;;5017685;28;19926;-70
2024/01/01 05:27:03;;;;;;;;;;;2.00;99.90;;;;;;5017954;28;19926;-71
2024/01/01 05:29:29;;;;;;;;;;;1.90;99.90;;;;;;5017633;28;19932;-70
2024/01/01 05:31:57;;;;;;;;;;;1.90;99.90;;;;;;5017222;28;20487;-70
2024/01/01 05:34:24;;;;;;;;;;;1.90;99.90;;;;;;5017487;28;19926;-69
2024/01/01 05:36:50;;;;;;;;;;;1.90;99.90;;;;;;5017199;28;19926;-69
2024/01/01 05:39:17;;;;;;;;;;;1.90;99.90;;;;;;5017760;28;19925;-69
2024/01/01 05:41:44;;;;;;;;;;;2.00;99.90;;;;;;5017428;28;19925;-70
2024/01/01 05:44:10;;;;;;;;;;;2.00;99.90;;;;;;5017765;28;19925;-71
2024/01/01 05:46:37;;;;;;;;;;;2.00;99.90;;;;;;5017466;28;20024;-70
2024/01/01 05:49:05;;;;;;;;;;;2.00;99.90;;;;;;5017502;28;19926;-72
2024/01/01 05:51:31;;;;;;;;;;;1.90;99.90;;;;;;5017265;28;20268;-72
2024/01/01 05:53:58;;;;;;;;;;;1.90;99.90;;;;;;5017125;28;20297;-72
2024/01/01 05:56:25;;;;;;;;;;;1.80;99.90;;;;;;5017274;28;20386;-73
2024/01/01 05:58:51;;;;;;;;;;;1.80;99.90;;;;;;5017474;28;19926;-73
2024/01/01 06:01:18;;;;;;;;;;;1.80;99.90;;;;;;5017325;28;19932;-72
2024/01/01 06:03:46;;;;;;;;;;;1.70;99.90;;;;;;5017014;28;19932;-72
2024/01/01 06:06:14;;;;;;;;;;;1.80;99.90;;;;;;5017151;28;19925;-72
2024/01/01 06:08:40;;;;;;;;;;;1.80;99.90;;;;;;5017202;28;19926;-72
2024/01/01 06:11:07;;;;;;;;;;;1.80;99.90;;;;;;5017006;28;19926;-72
2024/01/01 06:13:34;;;;;;;;;;;1.80;99.90;;;;;;5017352;28;19932;-72
2024/01/01 06:16:02;;;;;;;;;;;1.80;99.90;;;;;;5016516;28;19926;-71
2024/01/01 06:18:29;;;;;;;;;;;1.70;99.90;;;;;;5017148;28;19929;-72
2024/01/01 06:20:56;;;;;;;;;;;1.70;99.90;;;;;;5016514;28;20386;-72
2024/01/01 06:23:24;;;;;;;;;;;1.70;99.90;;;;;;5016673;28;19947;-72
2024/01/01 06:25:51;;;;;;;;;;;1.70;99.90;;;;;;5017157;28;19955;-72
2024/01/01 06:28:18;;;;;;;;;;;1.80;99.90;;;;;;5016529;28;19932;-72
2024/01/01 06:30:45;;;;;;;;;;;1.80;99.90;;;;;;5016410;28;19929;-72
2024/01/01 06:33:11;;;;;;;;;;;1.80;99.90;;;;;;5016491;28;19925;-72
2024/01/01 06:35:38;;;;;;;;;;;1.90;99.90;;;;;;5016475;28;19933;-72
2024/01/01 06:38:05;;;;;;;;;;;1.90;99.90;;;;;;5016416;28;19925;-72
2024/01/01 06:40:32;;;;;;;;;;;1.90;99.90;;;;;;5016308;28;19925;-71
2024/01/01 06:42:59;;;;;;;;;;;2.00;99.90;;;;;;5016306;28;19932;-71
2024/01/01 06:45:26;;;;;;;;;;;2.00;99.90;;;;;;5016188;28;19925;-70
2024/01/01 06:47:52;;;;;;;;;;;2.10;99.90;;;;;;5016331;28;19925;-70
2024/01/01 06:50:19;;;;;;;;;;;2.10;99.90;;;;;;5015856;28;20306;-71
2024/01/01 06:52:46;;;;;;;;;;;2.10;99.90;;;;;;5016149;28;19926;-72
2024/01/01 06:55:12;;;;;;;;;;;2.10;99.90;;;;;;5016034;28;19933;-73
2024/01/01 06:57:40;;;;;;;;;;;2.10;99.90;;;;;;5016013;28;19925;-73
2024/01/01 07:00:07;;;;;;;;;;;2.20;99.90;;;;;;5016136;28;19926;-74
2024/01/01 07:02:34;;;;;;;;;;;2.20;99.90;;;;;;5016103;28;19929;-73
2024/01/01 07:05:01;;;;;;;;;;;2.20;99.90;;;;;;5015849;28;19926;-73
2024/01/01 07:07:27;;;;;;;;;;;2.30;99.90;;;;;;5015847;28;19984;-73
2024/01/01 07:09:54;;;;;;;;;;;2.30;99.90;;;;;;5015812;28;19929;-74
2024/01/01 07:12:23;;;;;;;;;;;2.30;99.90;;;;;;5015625;28;19925;-74
2024/01/01 07:14:51;;;;;;;;;;;2.30;99.90;;;;;;5015494;28;19929;-74
2024/01/01 07:17:19;;;;;;;;;;;2.30;99.90;;;;;;5016964;28;19933;-73
2024/01/01 07:19:45;;;;;;;;;;;2.30;99.90;;;;;;5015591;28;19968;-74
2024/01/01 07:22:12;;;;;;;;;;;2.30;99.90;;;;;;5015596;28;19933;-74
2024/01/01 07:24:39;;;;;;;;;;;2.40;99.90;;;;;;5015762;28;19925;-74
2024/01/01 07:27:06;;;;;;;;;;;2.30;99.90;;;;;;5015737;28;19932;-74
2024/01/01 07:29:33;;;;;;;;;;;2.40;99.90;;;;;;5015230;28;20399;-74
2024/01/01 07:32:00;;;;;;;;;;;2.40;99.90;;;;;;5015514;28;19932;-73
2024/01/01 07:34:27;;;;;;;;;;;2.50;99.90;;;;;;5015716;28;19940;-74
2024/01/01 07:36:54;;;;;;;;;;;2.50;99.90;;;;;;5016222;28;19926;-74
2024/01/01 07:39:23;;;;;;;;;;;2.60;99.90;;;;;;5015677;28;19977;-74
2024/01/01 07:41:50;;;;;;;;;;;2.60;99.90;;;;;;5017457;28;19930;-73
2024/01/01 07:44:17;;;;;;;;;;;2.60;99.90;;;;;;5015266;28;20016;-73
2024/01/01 07:46:44;;;;;;;;;;;2.60;99.90;;;;;;5015248;28;19933;-73
2024/01/01 07:49:12;;;;;;;;;;;2.70;99.90;;;;;;5015342;28;19932;-73
2024/01/01 07:51:38;;;;;;;;;;;2.70;99.90;;;;;;5014991;28;20368;-73
2024/01/01 07:54:05;;;;;;;;;;;2.70;99.90;;;;;;5015253;28;20024;-74
2024/01/01 07:56:30;;;;;;;;;;;2.70;99.90;;;;;;5014850;28;20310;-73
2024/01/01 07:58:57;;;;;;;;;;;2.70;99.90;;;;;;5015073;28;19922;-73
2024/01/01 08:01:24;;;;;;;;;;;2.80;99.90;;;;;;5014910;28;20444;-73
2024/01/01 08:03:51;;;;;;;;;;;2.70;99.90;;;;;;5015025;28;19932;-75
2024/01/01 08:06:20;;;;;;;;;;;2.80;99.90;;;;;;5015380;28;19925;-74
2024/01/01 08:08:46;;;;;;;;;;;2.80;99.90;;;;;;5014833;28;19925;-72
2024/01/01 08:11:13;;;;;;;;;;;2.80;99.90;;;;;;5014420;28;20306;-72
2024/01/01 08:13:39;;;;;;;;;;;2.80;99.90;;;;;;5014843;28;20306;-72
2024/01/01 08:16:06;;;;;;;;;;;2.80;99.90;;;;;;5014792;28;20389;-73
2024/01/01 08:18:33;;;;;;;;;;;2.90;99.90;;;;;;5014901;28;20343;-72
2024/01/01 08:21:00;;;;;;;;;;;2.80;99.90;;;;;;5014803;28;19925;-72
2024/01/01 08:23:27;;;;;;;;;;;2.90;99.90;;;;;;5014379;28;20382;-72
2024/01/01 08:25:54;;;;;;;;;;;2.90;99.90;;;;;;5015406;28;19932;-73
2024/01/01 08:28:21;;;;;;;;;;;2.90;99.90;;;;;;5014505;28;19933;-71
2024/01/01 08:30:48;;;;;;;;;;;2.90;99.90;;;;;;5014463;28;20001;-73
2024/01/01 08:33:16;;;;;;;;;;;2.90;99.90;;;;;;5014209;28;20387;-72
2024/01/01 08:35:43;;;;;;;;;;;2.90;99.90;;;;;;5014445;28;20016;-73
2024/01/01 08:38:09;;;;;;;;;;;2.90;99.90;;;;;;5014421;28;20280;-73
2024/01/01 08:40:37;;;;;;;;;;;2.90;99.90;;;;;;5014221;28;20378;-73
2024/01/01 08:43:04;;;;;;;;;;;2.90;99.90;;;;;;5014138;28;20383;-73
2024/01/01 08:45:30;;;;;;;;;;;2.90;99.90;;;;;;5014394;28;19965;-73
2024/01/01 08:47:57;;;;;;;;;;;2.90;99.90;;;;;;5014134;28;20334;-73
2024/01/01 08:50:23;;;;;;;;;;;2.90;99.90;;;;;;5014358;28;19925;-73
2024/01/01 08:52:50;;;;;;;;;;;3.00;99.90;;;;;;5016625;28;19937;-73
2024/01/01 08:55:17;;;;;;;;;;;3.00;99.90;;;;;;5019845;28;19925;-73
2024/01/01 08:57:44;;;;;;;;;;;3.10;99.90;;;;;;5021139;28;19926;-73
2024/01/01 09:00:12;;;;;;;;;;;3.20;99.90;;;;;;5021413;28;19925;-73
2024/01/01 09:02:38;;;;;;;;;;;3.30;99.90;;;;;;5021756;28;19932;-74
2024/01/01 09:05:05;;;;;;;;;;;3.50;99.90;;;;;;5021092;28;19944;-74
2024/01/01 09:07:32;;;;;;;;;;;3.60;99.90;;;;;;5021337;28;20381;-74
2024/01/01 09:10:00;;;;;;;;;;;3.70;99.90;;;;;;5020767;28;20402;-75
2024/01/01 09:12:27;;;;;;;;;;;3.70;99.90;;;;;;5021181;28;19933;-74
2024/01/01 09:14:55;;;;;;;;;;;3.70;99.90;;;;;;5020894;28;19933;-74
2024/01/01 09:17:21;;;;;;;;;;;3.70;99.90;;;;;;5021101;28;19932;-75
2024/01/01 09:19:48;;;;;;;;;;;3.70;99.90;;;;;;5021848;28;19926;-75
2024/01/01 09:22:15;;;;;;;;;;;3.90;99.90;;;;;;5021092;28;19979;-74
2024/01/01 09:24:42;;;;;;;;;;;4.00;99.90;;;;;;5021011;28;19926;-73
2024/01/01 09:27:08;;;;;;;;;;;4.20;99.90;;;;;;5021064;28;19933;-75
2024/01/01 09:29:35;;;;;;;;;;;4.30;99.90;;;;;;5018403;28;19926;-74
2024/01/01 09:32:03;;;;;;;;;;;4.40;99.90;;;;;;5017931;28;19933;-71
2024/01/01 09:34:30;;;;;;;;;;;4.40;99.90;;;;;;5017845;28;20338;-72
2024/01/01 09:36:59;;;;;;;;;;;4.50;99.90;;;;;;5017580;28;19932;-75
2024/01/01 09:39:25;;;;;;;;;;;4.60;99.90;;;;;;5017579;28;19984;-74
2024/01/01 09:41:53;;;;;;;;;;;4.60;99.90;;;;;;5017800;28;19949;-74
2024/01/01 09:44:19;;;;;;;;;;;4.60;99.90;;;;;;5017733;28;19973;-74
2024/01/01 09:46:46;;;;;;;;;;;4.70;99.90;;;;;;5017278;28;19936;-74
2024/01/01 09:49:14;;;;;;;;;;;4.70;99.90;;;;;;5017278;28;19925;-74
2024/01/01 09:51:41;;;;;;;;;;;4.60;99.90;;;;;;5017355;28;19932;-74
2024/01/01 09:54:08;;;;;;;;;;;4.60;99.90;;;;;;5016844;28;20409;-73
2024/01/01 09:56:34;;;;;;;;;;;4.50;99.90;;;;;;5017151;28;19926;-73
2024/01/01 09:59:01;;;;;;;;;;;4.40;99.90;;;;;;5016940;28;19929;-74
2024/01/01 10:01:30;;;;;;;;;;;4.30;99.90;;;;;;5016654;28;20402;-74
2024/01/01 10:04:02;;;;;;;;;;;4.30;99.90;;;;;;5016645;28;19925;-74
2024/01/01 10:06:30;;;;;;;;;;;4.30;99.90;;;;;;5016966;28;20386;-74
2024/01/01 10:09:07;;;;;;;;;;;4.40;99.90;;;;;;5017042;28;19925;-74
2024/01/01 10:11:34;;;;;;;;;;;4.50;99.90;;;;;;5016821;28;19973;-74
2024/01/01 10:14:03;;;;;;;;;;;4.50;99.90;;;;;;5016640;28;19926;-74
2024/01/01 10:16:30;;;;;;;;;;;4.60;99.90;;;;;;5016861;28;20416;-74
2024/01/01 10:18:57;;;;;;;;;;;4.60;99.90;;;;;;5017633;28;19948;-75
2024/01/01 10:21:28;;;;;;;;;;;4.70;99.90;;;;;;5016771;28;19926;-75
2024/01/01 10:23:56;;;;;;;;;;;4.80;99.90;;;;;;5017197;28;19976;-72
2024/01/01 10:26:23;;;;;;;;;;;4.80;99.90;;;;;;5016589;28;19926;-72
2024/01/01 10:28:49;;;;;;;;;;;4.80;99.90;;;;;;5016475;28;19932;-72
2024/01/01 10:31:16;;;;;;;;;;;4.90;99.90;;;;;;5016404;28;19941;-72
2024/01/01 10:33:43;;;;;;;;;;;5.00;99.90;;;;;;5016391;28;19925;-72
2024/01/01 10:36:12;;;;;;;;;;;5.00;99.90;;;;;;5016201;28;19931;-72
2024/01/01 10:38:39;;;;;;;;;;;5.00;99.90;;;;;;5015877;28;20299;-72
2024/01/01 10:41:08;;;;;;;;;;;5.00;99.90;;;;;;5015972;28;19925;-71
2024/01/01 10:43:36;;;;;;;;;;;5.00;99.90;;;;;;5016962;28;19925;-72
2024/01/01 10:46:04;;;;;;;;;;;5.10;99.90;;;;;;5016053;28;19925;-72
2024/01/01 10:48:31;;;;;;;;;;;5.00;99.90;;;;;;5016130;28;19926;-72
2024/01/01 10:51:05;;;;;;;;;;;5.00;99.90;;;;;;5015699;28;20383;-73
2024/01/01 10:53:37;;;;;;;;;;;5.10;99.90;;;;;;5015907;28;19973;-72
2024/01/01 10:56:08;;;;;;;;;;;5.10;99.90;;;;;;5016166;28;19926;-72
2024/01/01 10:58:40;;;;;;;;;;;5.20;99.90;;;;;;5016811;28;19933;-72
2024/01/01 11:01:10;;;;;;;;;;;5.20;99.90;;;;;;5016362;28;19926;-72
2024/01/01 11:03:38;;;;;;;;;;;5.20;99.90;;;;;;5016278;28;19926;-72
2024/01/01 11:06:24;;;;;;;;;;;5.20;99.90;;;;;;5018397;28;20387;-72
2024/01/01 11:08:51;;;;;;;;;;;5.20;99.90;;;;;;5018506;28;19925;-73
2024/01/01 11:11:21;;;;;;;;;;;5.20;99.90;;;;;;5017475;28;20300;-72
2024/01/01 11:13:56;;;;;;;;;;;5.30;99.90;;;;;;5017328;28;19925;-71
2024/01/01 11:16:23;;;;;;;;;;;5.40;99.90;;;;;;5017418;28;19932;-73
2024/01/01 11:18:49;;;;;;;;;;;5.50;99.90;;;;;;5018649;28;20015;-72
2024/01/01 11:21:29;;;;;;;;;;;5.50;99.90;;;;;;5017559;28;19933;-73
2024/01/01 11:23:56;;;;;;;;;;;5.50;99.90;;;;;;5017062;28;19929;-72
2024/01/01 11:26:33;;;;;;;;;;;5.60;99.90;;;;;;5017499;28;19932;-73
2024/01/01 11:29:25;;;;;;;;;;;5.70;99.90;;;;;;5017696;28;19976;-71
2024/01/01 11:32:00;;;;;;;;;;;5.70;99.90;;;;;;5017686;28;19929;-72
2024/01/01 11:34:26;;;;;;;;;;;5.70;99.90;;;;;;5016345;28;19929;-72
2024/01/01 11:36:53;;;;;;;;;;;5.70;99.90;;;;;;5015343;28;19932;-72
2024/01/01 11:39:21;;;;;;;;;;;5.70;99.90;;;;;;5015344;28;19932;-73
2024/01/01 11:41:48;;;;;;;;;;;5.80;99.90;;;;;;5015099;28;20401;-75
2024/01/01 11:44:17;;;;;;;;;;;5.90;99.90;;;;;;5015416;28;20378;-75
2024/01/01 11:46:44;;;;;;;;;;;6.00;99.90;;;;;;5015666;28;19996;-76
2024/01/01 11:49:11;;;;;;;;;;;6.00;99.90;;;;;;5015335;28;19925;-75
2024/01/01 11:51:48;;;;;;;;;;;6.10;99.90;;;;;;5015344;28;19932;-77
2024/01/01 11:54:15;;;;;;;;;;;6.10;99.90;;;;;;5015320;28;19926;-75
2024/01/01 11:56:44;;;;;;;;;;;6.10;99.90;;;;;;5017289;28;19926;-75
2024/01/01 11:59:11;;;;;;;;;;;6.00;99.90;;;;;;5014848;28;20405;-76
2024/01/01 12:01:40;;;;;;;;;;;6.00;99.90;;;;;;5015058;28;19925;-74
2024/01/01 12:04:09;;;;;;;;;;;6.00;99.90;;;;;;5014001;28;22481;-76
2024/01/01 12:06:35;;;;;;;;;;;5.90;99.90;;;;;;5015131;28;19932;-74
2024/01/01 12:09:12;;;;;;;;;;;6.00;99.90;;;;;;5015007;28;19925;-74
2024/01/01 12:11:39;;;;;;;;;;;6.20;99.90;;;;;;5014886;28;19926;-75
2024/01/01 12:14:06;;;;;;;;;;;6.10;99.90;;;;;;5014486;28;19932;-75
2024/01/01 12:16:33;;;;;;;;;;;6.10;99.90;;;;;;5015458;28;19925;-75
2024/01/01 12:19:01;;;;;;;;;;;6.10;99.90;;;;;;5014972;28;20012;-75
2024/01/01 12:21:38;;;;;;;;;;;6.10;99.90;;;;;;5014852;28;19961;-75
2024/01/01 12:24:05;;;;;;;;;;;6.10;99.90;;;;;;5014595;28;19964;-75
2024/01/01 12:26:33;;;;;;;;;;;6.00;99.90;;;;;;5014372;28;19925;-74
2024/01/01 12:29:10;;;;;;;;;;;6.00;99.90;;;;;;5014440;28;19929;-75
2024/01/01 12:31:37;;;;;;;;;;;6.00;99.90;;;;;;5014441;28;19961;-74
2024/01/01 12:34:05;;;;;;;;;;;6.00;99.90;;;;;;5014688;28;19925;-73
2024/01/01 12:36:31;;;;;;;;;;;6.00;99.90;;;;;;5014087;28;19926;-73
2024/01/01 12:38:58;;;;;;;;;;;6.00;99.90;;;;;;5013979;28;19949;-72
2024/01/01 12:41:24;;;;;;;;;;;6.00;99.90;;;;;;5014155;28;19926;-73
2024/01/01 12:43:51;;;;;;;;;;;6.00;99.90;;;;;;5013753;28;19925;-74
2024/01/01 12:46:18;;;;;;;;;;;6.00;99.90;;;;;;5014180;28;19932;-75
2024/01/01 12:48:45;;;;;;;;;;;6.00;99.90;;;;;;5013846;28;19932;-73
2024/01/01 12:51:14;;;;;;;;;;;6.10;99.90;;;;;;5013736;28;20271;-74
2024/01/01 12:53:41;;;;;;;;;;;6.10;99.90;;;;;;5014190;28;19926;-74
2024/01/01 12:56:07;;;;;;;;;;;6.10;99.90;;;;;;5013958;28;19933;-73
2024/01/01 12:58:34;;;;;;;;;;;6.10;99.90;;;;;;5013782;28;20280;-73
2024/01/01 13:01:01;;;;;;;;;;;6.20;99.90;;;;;;5014415;28;19925;-73
2024/01/01 13:03:27;;;;;;;;;;;6.20;99.90;;;;;;5014013;28;20387;-72
2024/01/01 13:05:54;;;;;;;;;;;6.30;99.90;;;;;;5014552;28;19926;-72
2024/01/01 13:08:22;;;;;;;;;;;6.30;99.90;;;;;;5014283;28;19926;-72
2024/01/01 13:10:48;;;;;;;;;;;6.40;99.90;;;;;;5015278;28;20475;-73
2024/01/01 13:13:15;;;;;;;;;;;6.40;99.90;;;;;;5013728;28;20406;-73
2024/01/01 13:15:42;;;;;;;;;;;6.40;99.90;;;;;;5013603;28;20374;-72
2024/01/01 13:18:08;;;;;;;;;;;6.30;99.90;;;;;;5013986;28;19925;-72
2024/01/01 13:20:35;;;;;;;;;;;6.20;99.90;;;;;;5013744;28;19933;-73
2024/01/01 13:23:01;;;;;;;;;;;6.10;99.90;;;;;;5013801;28;19929;-73
2024/01/01 13:25:29;;;;;;;;;;;6.10;99.90;;;;;;5013894;28;19933;-72
2024/01/01 13:27:56;;;;;;;;;;;6.00;99.90;;;;;;5014138;28;19926;-73
2024/01/01 13:30:22;;;;;;;;;;;5.90;99.90;;;;;;5013665;28;19932;-73
2024/01/01 14:28:19;;;;;;;;;;;4.80;99.90;;;;;;5358956;23;19926;-74
2024/01/01 14:30:50;;;;;;;;;;;4.80;99.90;;;;;;5001249;28;19933;-75
2024/01/01 14:33:17;;;;;;;;;;;4.70;99.90;;;;;;4996983;28;19926;-75
2024/01/01 14:35:43;;;;;;;;;;;4.70;99.90;;;;;;4996813;28;19925;-75
2024/01/01 14:38:10;;;;;;;;;;;4.60;99.90;;;;;;5009439;28;19925;-74
2024/01/01 14:40:36;;;;;;;;;;;4.60;99.90;;;;;;5016702;28;19925;-76
2024/01/01 14:43:05;;;;;;;;;;;4.60;99.90;;;;;;5017140;28;19932;-76
2024/01/01 14:45:33;;;;;;;;;;;4.50;99.90;;;;;;5016616;28;20370;-76
2024/01/01 14:47:59;;;;;;;;;;;4.50;99.90;;;;;;5016592;28;19929;-76
2024/01/01 14:50:26;;;;;;;;;;;4.40;99.90;;;;;;5015532;28;19925;-75
2024/01/01 14:52:53;;;;;;;;;;;4.30;99.90;;;;;;5016638;28;19926;-75
2024/01/01 14:55:19;;;;;;;;;;;4.30;99.90;;;;;;5017440;28;19930;-76
2024/01/01 14:57:46;;;;;;;;;;;4.20;99.90;;;;;;5017328;28;19926;-77
2024/01/01 15:00:13;;;;;;;;;;;4.20;99.90;;;;;;5017387;28;20360;-75
2024/01/01 15:02:41;;;;;;;;;;;4.10;99.90;;;;;;5016854;28;19952;-76
2024/01/01 15:05:07;;;;;;;;;;;4.10;99.90;;;;;;5016226;28;19925;-75
2024/01/01 15:07:34;;;;;;;;;;;4.00;99.90;;;;;;5016184;28;19926;-73
2024/01/01 15:10:01;;;;;;;;;;;3.90;99.90;;;;;;5015919;28;19932;-74
2024/01/01 15:12:27;;;;;;;;;;;3.90;99.90;;;;;;5015972;28;19932;-75
2024/01/01 15:14:54;;;;;;;;;;;3.70;99.90;;;;;;5016140;28;19933;-75
2024/01/01 15:17:20;;;;;;;;;;;3.70;99.90;;;;;;5015980;28;19932;-75
2024/01/01 15:19:48;;;;;;;;;;;3.60;99.90;;;;;;5015987;28;19947;-75
2024/01/01 15:22:15;;;;;;;;;;;3.60;99.90;;;;;;5016190;28;19967;-76
2024/01/01 15:24:42;;;;;;;;;;;3.60;99.90;;;;;;5015919;28;19926;-75
2024/01/01 15:27:09;;;;;;;;;;;3.60;99.90;;;;;;5015655;28;19925;-76